Time;durP1;ratioP1;P1;durP2;ratioP2;P2;SDS_P1;SDS_P2;PMS_P1;PMS_P2;Temp;Humidity;BMP_temperature;BMP_pressure;BME280_temperature;BME280_humidity;BME280_pressure;Samples;Min_cycle;Max_cycle;Signal;HPM_P1;HPM_P2
2023/08/17 00:00:08;;;;;;;10.10;9.80;;;22.40;99.90;;;;;;5098990;28;20252;-87
2023/08/17 00:02:35;;;;;;;10.20;9.90;;;22.40;99.90;;;;;;5099107;28;20271;-87
2023/08/17 00:05:05;;;;;;;10.00;9.70;;;22.40;99.90;;;;;;5099044;28;20334;-88
2023/08/17 00:07:34;;;;;;;9.90;9.60;;;22.40;99.90;;;;;;5099741;28;20237;-89
2023/08/17 00:10:01;;;;;;;9.95;9.65;;;22.50;99.90;;;;;;5113916;22;20232;-80
2023/08/17 00:12:28;;;;;;;9.80;9.50;;;22.50;99.90;;;;;;5086996;28;20229;-80
2023/08/17 00:14:55;;;;;;;9.70;9.40;;;22.50;99.90;;;;;;5091605;28;20287;-81
2023/08/17 00:17:23;;;;;;;9.85;9.55;;;22.50;99.90;;;;;;5082876;28;20234;-80
2023/08/17 00:19:50;;;;;;;9.60;9.30;;;22.50;99.90;;;;;;5079132;28;20236;-81
2023/08/17 00:22:17;;;;;;;9.52;9.23;;;22.40;99.90;;;;;;5080502;28;20237;-81
2023/08/17 00:24:48;;;;;;;9.50;9.20;;;22.40;99.90;;;;;;5080646;28;20309;-82
2023/08/17 00:27:15;;;;;;;9.80;9.50;;;22.40;99.90;;;;;;5083405;28;20261;-82
2023/08/17 00:29:42;;;;;;;9.68;9.38;;;22.40;99.90;;;;;;5080534;28;20778;-81
2023/08/17 00:32:09;;;;;;;9.57;9.27;;;22.40;99.90;;;;;;5080553;28;20232;-81
2023/08/17 00:34:36;;;;;;;9.73;9.43;;;22.40;99.90;;;;;;5080526;28;20296;-81
2023/08/17 00:37:04;;;;;;;9.80;9.50;;;22.20;99.90;;;;;;5080561;28;20240;-82
2023/08/17 00:39:31;;;;;;;9.90;9.60;;;22.20;99.90;;;;;;5079676;28;20234;-81
2023/08/17 00:42:00;;;;;;;10.20;9.90;;;22.10;99.90;;;;;;5080045;28;20236;-81
2023/08/17 00:44:27;;;;;;;10.43;10.13;;;22.10;99.90;;;;;;5079938;28;20240;-82
2023/08/17 00:46:54;;;;;;;10.20;9.90;;;22.00;99.90;;;;;;5080817;28;20229;-81
2023/08/17 00:49:21;;;;;;;10.45;10.15;;;22.00;99.90;;;;;;5076724;28;20279;-81
2023/08/17 00:51:48;;;;;;;10.45;10.15;;;22.00;99.90;;;;;;5077262;28;20253;-81
2023/08/17 00:54:20;;;;;;;10.45;10.15;;;21.80;99.90;;;;;;5078074;28;20260;-81
2023/08/17 00:56:47;;;;;;;10.10;9.80;;;21.70;99.90;;;;;;5078600;28;20226;-81
2023/08/17 00:59:16;;;;;;;10.40;10.10;;;21.60;99.90;;;;;;5079492;28;20258;-81
2023/08/17 01:01:44;;;;;;;10.00;9.70;;;21.60;99.90;;;;;;5078589;28;20265;-81
2023/08/17 01:04:11;;;;;;;10.00;9.70;;;21.70;99.90;;;;;;5079914;28;20234;-81
2023/08/17 01:06:38;;;;;;;10.00;9.70;;;21.70;99.90;;;;;;5079129;28;20292;-81
2023/08/17 01:09:07;;;;;;;9.90;9.60;;;21.70;99.90;;;;;;5078742;28;20239;-81
2023/08/17 01:11:45;;;;;;;10.05;9.75;;;21.80;99.90;;;;;;5079244;28;20262;-81
2023/08/17 01:14:23;;;;;;;10.32;10.02;;;21.80;99.90;;;;;;5079451;28;20234;-82
2023/08/17 01:16:59;;;;;;;10.20;9.90;;;21.70;99.90;;;;;;5078997;28;20233;-81
2023/08/17 01:19:29;;;;;;;10.00;9.70;;;21.80;99.90;;;;;;5079526;28;20265;-81
2023/08/17 01:22:02;;;;;;;10.02;9.73;;;21.70;99.90;;;;;;5080530;28;20230;-81
2023/08/17 01:24:30;;;;;;;10.25;9.95;;;21.80;99.90;;;;;;5083615;28;20995;-81
2023/08/17 01:26:57;;;;;;;10.30;10.00;;;21.80;99.90;;;;;;5082721;28;20574;-82
2023/08/17 01:29:24;;;;;;;10.30;10.00;;;21.80;99.90;;;;;;5082962;28;20218;-82
2023/08/17 01:32:05;;;;;;;10.50;10.20;;;21.90;99.90;;;;;;5083365;28;20256;-82
2023/08/17 01:34:39;;;;;;;10.48;10.18;;;21.90;99.90;;;;;;5083932;28;20225;-82
2023/08/17 01:37:08;;;;;;;10.75;10.45;;;21.90;99.90;;;;;;5083883;28;20297;-81
2023/08/17 01:39:41;;;;;;;10.48;10.18;;;22.00;99.90;;;;;;5082945;28;20234;-81
2023/08/17 01:42:14;;;;;;;10.45;10.15;;;21.90;99.90;;;;;;5082033;28;20236;-82
2023/08/17 01:44:42;;;;;;;10.52;10.23;;;21.90;99.90;;;;;;5083501;28;20244;-81
2023/08/17 01:47:10;;;;;;;10.50;10.20;;;21.90;99.90;;;;;;5079890;28;20244;-81
2023/08/17 01:49:37;;;;;;;10.60;10.30;;;21.90;99.90;;;;;;5080322;28;20238;-81
2023/08/17 01:52:05;;;;;;;10.15;9.85;;;21.90;99.90;;;;;;5081139;28;20310;-81
2023/08/17 01:54:32;;;;;;;9.80;9.50;;;21.90;99.90;;;;;;5083093;28;20256;-81
2023/08/17 01:57:00;;;;;;;10.30;10.00;;;22.00;99.90;;;;;;5083553;28;20237;-81
2023/08/17 01:59:27;;;;;;;10.10;9.80;;;22.00;99.90;;;;;;5084296;28;20273;-81
2023/08/17 02:01:55;;;;;;;9.98;9.68;;;22.10;99.90;;;;;;5084072;28;20303;-82
2023/08/17 02:04:22;;;;;;;9.65;9.35;;;22.10;99.90;;;;;;5085275;28;20313;-82
2023/08/17 02:06:49;;;;;;;9.35;9.05;;;22.10;99.90;;;;;;5100046;28;20237;-81
2023/08/17 02:09:16;;;;;;;9.90;9.60;;;22.10;99.90;;;;;;5099755;28;20230;-82
2023/08/17 02:11:43;;;;;;;9.73;9.43;;;22.10;99.90;;;;;;5099729;28;20237;-81
2023/08/17 02:14:11;;;;;;;9.75;9.45;;;22.10;99.90;;;;;;5101377;28;20233;-80
2023/08/17 02:16:38;;;;;;;9.80;9.50;;;22.10;99.90;;;;;;5101411;28;20222;-80
2023/08/17 02:19:06;;;;;;;9.60;9.30;;;22.10;99.90;;;;;;5101070;28;20234;-82
2023/08/17 02:21:33;;;;;;;9.77;9.48;;;22.10;99.90;;;;;;5100594;28;20241;-81
2023/08/17 02:24:00;;;;;;;9.77;9.48;;;22.10;99.90;;;;;;5087944;28;20238;-80
2023/08/17 02:26:27;;;;;;;9.80;9.50;;;22.10;99.90;;;;;;5097944;28;20233;-80
2023/08/17 02:28:54;;;;;;;9.68;9.38;;;22.10;99.90;;;;;;5100889;28;20218;-81
2023/08/17 02:31:22;;;;;;;9.70;9.40;;;22.10;99.90;;;;;;5101245;28;20281;-81
2023/08/17 02:33:50;;;;;;;9.80;9.50;;;22.10;99.90;;;;;;5100273;28;20215;-82
2023/08/17 02:36:17;;;;;;;9.57;9.27;;;22.10;99.90;;;;;;5098211;28;20228;-81
2023/08/17 02:38:44;;;;;;;9.63;9.32;;;22.10;99.90;;;;;;5090254;28;20257;-81
2023/08/17 02:41:11;;;;;;;9.73;9.43;;;22.10;99.90;;;;;;5083277;28;20324;-81
2023/08/17 02:43:38;;;;;;;9.70;9.40;;;22.10;99.90;;;;;;5083582;28;20337;-81
2023/08/17 02:46:07;;;;;;;10.10;9.80;;;22.10;99.90;;;;;;5084231;28;20269;-81
2023/08/17 02:48:35;;;;;;;10.20;9.90;;;22.10;99.90;;;;;;5082619;28;20233;-81
2023/08/17 02:51:02;;;;;;;10.30;10.00;;;22.00;99.90;;;;;;5081117;28;20261;-82
2023/08/17 02:53:29;;;;;;;10.27;9.98;;;22.00;99.90;;;;;;5081472;28;20250;-81
2023/08/17 02:55:56;;;;;;;10.23;9.93;;;22.00;99.90;;;;;;5080733;28;20237;-81
2023/08/17 02:58:24;;;;;;;10.30;10.00;;;21.80;99.90;;;;;;5082839;28;20238;-81
2023/08/17 03:00:53;;;;;;;10.20;9.90;;;21.80;99.90;;;;;;5082960;28;21151;-81
2023/08/17 03:03:20;;;;;;;10.02;9.73;;;21.80;99.90;;;;;;5082082;28;20238;-82
2023/08/17 03:05:49;;;;;;;10.00;9.70;;;21.80;99.90;;;;;;5081372;28;20229;-80
2023/08/17 03:08:16;;;;;;;9.85;9.55;;;21.80;99.90;;;;;;5080758;28;20241;-81
2023/08/17 03:10:43;;;;;;;10.00;9.70;;;21.80;99.90;;;;;;5081283;28;20328;-82
2023/08/17 03:13:10;;;;;;;9.52;9.23;;;21.80;99.90;;;;;;5081155;28;20233;-81
2023/08/17 03:15:39;;;;;;;9.60;9.30;;;21.70;99.90;;;;;;5080916;28;20268;-81
2023/08/17 03:18:07;;;;;;;9.68;9.38;;;21.60;99.90;;;;;;5082014;28;20240;-81
2023/08/17 03:20:34;;;;;;;9.70;9.40;;;21.60;99.90;;;;;;5081287;28;20230;-82
2023/08/17 03:23:05;;;;;;;9.90;9.60;;;21.60;99.90;;;;;;5081062;28;20256;-81
2023/08/17 03:25:33;;;;;;;9.95;9.65;;;21.50;99.90;;;;;;5081337;28;20242;-81
2023/08/17 03:28:00;;;;;;;9.90;9.60;;;21.50;99.90;;;;;;5080681;28;20290;-82
2023/08/17 03:30:27;;;;;;;9.90;9.60;;;21.50;99.90;;;;;;5081802;28;20727;-81
2023/08/17 03:32:54;;;;;;;9.73;9.43;;;21.50;99.90;;;;;;5081390;28;20276;-81
2023/08/17 03:35:21;;;;;;;10.02;9.73;;;21.50;99.90;;;;;;5091036;28;20249;-82
2023/08/17 03:37:48;;;;;;;9.65;9.35;;;21.50;99.90;;;;;;5085494;28;20261;-81
2023/08/17 03:40:17;;;;;;;9.85;9.55;;;21.60;99.90;;;;;;5081880;28;20234;-81
2023/08/17 03:42:44;;;;;;;9.60;9.30;;;21.60;99.90;;;;;;5080639;28;20313;-82
2023/08/17 03:45:11;;;;;;;9.55;9.25;;;21.60;99.90;;;;;;5079773;28;20261;-81
2023/08/17 03:47:38;;;;;;;9.70;9.40;;;21.50;99.90;;;;;;5079769;28;20245;-81
2023/08/17 03:50:07;;;;;;;9.50;9.20;;;21.50;99.90;;;;;;5080061;28;20315;-81
2023/08/17 03:52:34;;;;;;;9.40;9.10;;;21.60;99.90;;;;;;5080558;28;20237;-82
2023/08/17 03:55:02;;;;;;;9.57;9.27;;;21.60;99.90;;;;;;5081309;28;20325;-82
2023/08/17 03:57:31;;;;;;;9.80;9.50;;;21.50;99.90;;;;;;5081466;28;20260;-81
2023/08/17 04:00:00;;;;;;;10.40;10.10;;;21.50;99.90;;;;;;5080925;28;20302;-82
2023/08/17 04:02:27;;;;;;;10.35;10.05;;;21.50;99.90;;;;;;5081174;28;20238;-81
2023/08/17 04:04:55;;;;;;;10.27;9.98;;;21.40;99.90;;;;;;5081040;28;20260;-82
2023/08/17 04:07:23;;;;;;;10.60;10.30;;;21.40;99.90;;;;;;5081316;28;20231;-82
2023/08/17 04:09:50;;;;;;;10.40;10.10;;;21.40;99.90;;;;;;5080096;28;20248;-82
2023/08/17 04:12:17;;;;;;;10.48;10.18;;;21.40;99.90;;;;;;5084486;28;20257;-81
2023/08/17 04:14:46;;;;;;;10.50;10.20;;;21.40;99.90;;;;;;5081769;28;20269;-82
2023/08/17 04:17:13;;;;;;;10.60;10.30;;;21.40;99.90;;;;;;5080849;28;20222;-81
2023/08/17 04:19:40;;;;;;;10.43;10.13;;;21.40;99.90;;;;;;5080026;28;20284;-82
2023/08/17 04:22:10;;;;;;;10.60;10.30;;;21.40;99.90;;;;;;5080541;28;20237;-82
2023/08/17 04:24:37;;;;;;;10.38;10.07;;;21.40;99.90;;;;;;5081131;28;20230;-82
2023/08/17 04:27:05;;;;;;;10.30;10.00;;;21.40;99.90;;;;;;5082084;28;20230;-83
2023/08/17 04:29:32;;;;;;;10.50;10.20;;;21.40;99.90;;;;;;5081290;28;20242;-82
2023/08/17 04:32:01;;;;;;;10.60;10.30;;;21.40;99.90;;;;;;5075313;28;20221;-83
2023/08/17 04:34:28;;;;;;;10.48;10.18;;;21.40;99.90;;;;;;5081094;28;20230;-82
2023/08/17 04:36:56;;;;;;;10.10;9.80;;;21.40;99.90;;;;;;5080890;28;20222;-83
2023/08/17 04:39:23;;;;;;;10.18;9.88;;;21.40;99.90;;;;;;5081595;28;20238;-82
2023/08/17 04:41:50;;;;;;;10.30;10.00;;;21.30;99.90;;;;;;5077511;28;20230;-82
2023/08/17 04:44:18;;;;;;;10.10;9.80;;;21.20;99.90;;;;;;5077881;28;20317;-82
2023/08/17 04:46:45;;;;;;;10.70;10.40;;;21.20;99.90;;;;;;5078939;28;20225;-82
2023/08/17 04:49:14;;;;;;;10.55;10.25;;;21.10;99.90;;;;;;5078846;28;20284;-82
2023/08/17 04:51:41;;;;;;;10.70;10.40;;;21.20;99.90;;;;;;5079642;28;20304;-83
2023/08/17 04:54:08;;;;;;;10.32;10.02;;;21.20;99.90;;;;;;5079533;28;20234;-82
2023/08/17 04:56:35;;;;;;;10.13;9.82;;;21.20;99.90;;;;;;5080902;28;20226;-83
2023/08/17 04:59:03;;;;;;;10.20;9.90;;;21.20;99.90;;;;;;5084492;28;20233;-85
2023/08/17 05:01:30;;;;;;;10.65;10.35;;;21.20;99.90;;;;;;5079035;28;20405;-79
2023/08/17 05:03:57;;;;;;;10.40;10.10;;;21.20;99.90;;;;;;5077891;28;20309;-78
2023/08/17 05:06:25;;;;;;;10.30;10.00;;;21.30;99.90;;;;;;5079778;28;20296;-79
2023/08/17 05:08:52;;;;;;;10.15;9.85;;;21.40;99.90;;;;;;5078270;28;20238;-79
2023/08/17 05:11:19;;;;;;;10.30;10.00;;;21.40;99.90;;;;;;5077832;28;20330;-79
2023/08/17 05:13:46;;;;;;;10.30;10.00;;;21.40;99.90;;;;;;5077664;28;20292;-78
2023/08/17 05:16:13;;;;;;;10.18;9.88;;;21.50;99.90;;;;;;5077231;28;20229;-78
2023/08/17 05:18:40;;;;;;;10.20;9.90;;;21.50;99.90;;;;;;5077820;28;20317;-78
2023/08/17 05:21:07;;;;;;;9.90;9.60;;;21.50;99.90;;;;;;5077226;28;20248;-79
2023/08/17 05:23:36;;;;;;;9.90;9.60;;;21.60;99.90;;;;;;5077870;28;20230;-78
2023/08/17 05:26:03;;;;;;;10.20;9.90;;;21.60;99.90;;;;;;5077910;28;20290;-78
2023/08/17 05:28:30;;;;;;;9.90;9.60;;;21.70;99.90;;;;;;5077971;28;20264;-79
2023/08/17 05:30:57;;;;;;;9.85;9.55;;;21.70;99.90;;;;;;5077871;28;20248;-79
2023/08/17 05:33:24;;;;;;;9.90;9.60;;;21.80;99.90;;;;;;5077623;28;20290;-79
2023/08/17 05:35:55;;;;;;;9.90;9.60;;;21.80;99.90;;;;;;5081471;28;20246;-78
2023/08/17 05:38:21;;;;;;;10.00;9.70;;;21.80;99.90;;;;;;5082640;28;20241;-79
2023/08/17 05:40:56;;;;;;;10.07;9.77;;;21.90;99.90;;;;;;5085594;28;20230;-78
2023/08/17 05:43:23;;;;;;;9.77;9.48;;;21.90;99.90;;;;;;5084769;28;20227;-79
2023/08/17 05:45:50;;;;;;;9.90;9.60;;;22.00;99.90;;;;;;5085090;28;20237;-78
2023/08/17 05:48:23;;;;;;;10.02;9.73;;;22.10;99.90;;;;;;5081480;28;20244;-79
2023/08/17 05:50:50;;;;;;;10.20;9.90;;;22.20;99.90;;;;;;5080164;28;20750;-79
2023/08/17 05:53:17;;;;;;;10.40;10.10;;;22.20;99.90;;;;;;5077895;28;20257;-79
2023/08/17 05:55:44;;;;;;;10.40;10.10;;;22.30;99.90;;;;;;5077528;28;20250;-79
2023/08/17 05:58:12;;;;;;;10.30;10.00;;;22.40;99.90;;;;;;5077062;28;20236;-78
2023/08/17 06:00:39;;;;;;;10.40;10.10;;;22.50;99.90;;;;;;5077839;28;20232;-79
2023/08/17 06:03:07;;;;;;;10.50;10.20;;;22.50;99.90;;;;;;5077233;28;20347;-79
2023/08/17 06:05:34;;;;;;;10.38;10.07;;;22.60;99.90;;;;;;5078468;28;20234;-79
2023/08/17 06:08:01;;;;;;;10.48;10.18;;;22.70;99.90;;;;;;5081745;28;20230;-80
2023/08/17 06:10:28;;;;;;;10.38;10.07;;;22.80;99.90;;;;;;5080675;28;20233;-80
2023/08/17 06:12:56;;;;;;;10.55;10.25;;;22.90;99.90;;;;;;5078837;28;20230;-80
2023/08/17 06:15:25;;;;;;;10.35;10.05;;;22.90;99.90;;;;;;5080338;28;20238;-80
2023/08/17 06:17:52;;;;;;;10.50;10.20;;;23.00;99.90;;;;;;5080346;28;20282;-80
2023/08/17 06:20:20;;;;;;;10.60;10.30;;;23.10;99.90;;;;;;5080325;28;20336;-79
2023/08/17 06:22:49;;;;;;;10.50;10.20;;;23.20;99.90;;;;;;5082499;28;20234;-79
2023/08/17 06:25:16;;;;;;;10.50;10.20;;;23.40;99.90;;;;;;5078893;28;20226;-79
2023/08/17 06:27:44;;;;;;;10.30;10.00;;;23.40;99.90;;;;;;5078555;28;20316;-81
2023/08/17 06:30:13;;;;;;;10.50;10.20;;;23.50;99.90;;;;;;5081168;28;20236;-82
2023/08/17 06:32:41;;;;;;;10.50;10.20;;;23.60;99.90;;;;;;5072899;28;20230;-81
2023/08/17 06:35:09;;;;;;;10.48;10.18;;;23.60;99.90;;;;;;5075931;28;20313;-81
2023/08/17 06:37:36;;;;;;;10.57;10.27;;;23.70;99.90;;;;;;5088406;28;20229;-81
2023/08/17 06:40:05;;;;;;;10.60;10.30;;;23.70;99.90;;;;;;5078399;28;20303;-81
2023/08/17 06:42:33;;;;;;;10.70;10.40;;;23.70;99.90;;;;;;5077836;28;20245;-81
2023/08/17 06:45:00;;;;;;;10.73;10.43;;;23.80;99.90;;;;;;5078272;28;20236;-80
2023/08/17 06:47:27;;;;;;;10.77;10.48;;;24.00;99.90;;;;;;5076722;28;20226;-78
2023/08/17 06:49:57;;;;;;;10.82;10.52;;;24.10;99.90;;;;;;5077000;28;20237;-79
2023/08/17 06:52:24;;;;;;;10.90;10.60;;;24.20;99.90;;;;;;5077032;28;20277;-79
2023/08/17 06:54:51;;;;;;;11.00;10.70;;;24.20;99.90;;;;;;5076668;28;20228;-78
2023/08/17 06:57:18;;;;;;;10.85;10.55;;;24.20;99.90;;;;;;5073996;28;20234;-79
2023/08/17 06:59:46;;;;;;;10.80;10.50;;;24.30;99.90;;;;;;5074252;28;20260;-78
2023/08/17 07:02:13;;;;;;;10.68;10.38;;;24.40;99.90;;;;;;5074037;28;20238;-78
2023/08/17 07:04:39;;;;;;;10.60;10.30;;;24.40;99.90;;;;;;5075325;28;20233;-77
2023/08/17 07:07:08;;;;;;;10.60;10.30;;;24.40;99.90;;;;;;5075528;28;20256;-78
2023/08/17 07:09:35;;;;;;;10.70;10.40;;;24.50;99.90;;;;;;5073996;28;20238;-79
2023/08/17 07:12:02;;;;;;;10.80;10.50;;;24.50;99.90;;;;;;5076314;28;20274;-78
2023/08/17 07:14:29;;;;;;;10.43;10.13;;;24.60;99.90;;;;;;5076727;28;20221;-79
2023/08/17 07:16:56;;;;;;;10.30;10.00;;;24.70;99.90;;;;;;5075323;28;20240;-78
2023/08/17 07:19:23;;;;;;;10.40;10.10;;;24.70;99.90;;;;;;5073653;28;20252;-78
2023/08/17 07:21:50;;;;;;;10.30;10.00;;;24.70;99.90;;;;;;5073879;28;20234;-78
2023/08/17 07:24:19;;;;;;;10.32;10.02;;;24.80;99.90;;;;;;5074516;28;20265;-79
2023/08/17 07:26:46;;;;;;;10.10;9.80;;;24.80;99.90;;;;;;5078383;28;20325;-79
2023/08/17 07:29:13;;;;;;;10.18;9.88;;;24.80;99.90;;;;;;5081661;28;20242;-80
2023/08/17 07:31:40;;;;;;;10.20;9.90;;;24.80;99.90;;;;;;5081680;28;20293;-78
2023/08/17 07:34:07;;;;;;;10.10;9.80;;;24.90;99.90;;;;;;5081258;28;20245;-78
2023/08/17 07:36:35;;;;;;;10.93;10.63;;;24.90;99.90;;;;;;5078368;28;20230;-78
2023/08/17 07:39:02;;;;;;;10.90;10.60;;;25.00;99.90;;;;;;5077205;28;20297;-78
2023/08/17 07:41:30;;;;;;;11.00;10.70;;;25.00;99.90;;;;;;5082957;28;20218;-77
2023/08/17 07:43:57;;;;;;;10.95;10.65;;;25.10;99.90;;;;;;5081281;28;20226;-78
2023/08/17 07:46:24;;;;;;;11.15;10.85;;;25.20;99.90;;;;;;5076465;28;20237;-81
2023/08/17 07:48:51;;;;;;;11.10;10.80;;;25.30;99.90;;;;;;5077204;28;20240;-79
2023/08/17 07:51:19;;;;;;;10.88;10.57;;;25.30;99.90;;;;;;5077773;28;20320;-78
2023/08/17 07:53:46;;;;;;;11.00;10.70;;;25.40;99.90;;;;;;5077185;28;20234;-78
2023/08/17 07:56:14;;;;;;;11.30;10.90;;;25.50;99.90;;;;;;5079725;28;20297;-79
2023/08/17 07:58:41;;;;;;;11.15;10.82;;;25.60;99.90;;;;;;5081045;28;20261;-82
2023/08/17 08:01:08;;;;;;;11.00;10.70;;;25.60;99.90;;;;;;5082231;28;20335;-80
2023/08/17 08:03:35;;;;;;;11.02;10.73;;;25.70;99.90;;;;;;5082936;28;20309;-80
2023/08/17 08:06:02;;;;;;;10.82;10.52;;;25.80;99.90;;;;;;5081824;28;20229;-78
2023/08/17 08:08:29;;;;;;;11.10;10.80;;;25.90;99.90;;;;;;5077062;28;20241;-78
2023/08/17 08:10:56;;;;;;;10.80;10.50;;;26.00;99.90;;;;;;5078859;28;20234;-79
2023/08/17 08:13:23;;;;;;;11.00;10.70;;;26.10;99.90;;;;;;5079136;28;20234;-79
2023/08/17 08:15:52;;;;;;;11.00;10.70;;;26.10;99.90;;;;;;5079006;28;20230;-79
2023/08/17 08:18:19;;;;;;;11.30;11.00;;;26.20;99.90;;;;;;5079220;28;20241;-81
2023/08/17 08:20:46;;;;;;;11.57;11.18;;;26.30;99.90;;;;;;5081215;28;20325;-81
2023/08/17 08:23:13;;;;;;;11.65;11.25;;;26.40;99.90;;;;;;5080535;28;20214;-80
2023/08/17 08:25:40;;;;;;;11.10;10.80;;;26.40;99.90;;;;;;5081587;28;20297;-81
2023/08/17 08:28:08;;;;;;;11.30;11.00;;;26.40;99.90;;;;;;5085585;28;20234;-82
2023/08/17 08:30:35;;;;;;;11.20;10.90;;;26.40;99.90;;;;;;5085236;28;20242;-80
2023/08/17 08:33:05;;;;;;;11.10;10.80;;;26.50;99.90;;;;;;5090990;28;20254;-81
2023/08/17 08:35:32;;;;;;;11.18;10.88;;;26.50;99.90;;;;;;5091279;28;20236;-79
2023/08/17 08:38:00;;;;;;;11.20;10.90;;;26.60;99.90;;;;;;5092045;28;20298;-79
2023/08/17 08:40:30;;;;;;;11.32;11.02;;;26.80;99.90;;;;;;5097781;28;20249;-81
2023/08/17 08:42:58;;;;;;;11.57;11.18;;;27.00;99.90;;;;;;5099564;28;20232;-79
2023/08/17 08:45:25;;;;;;;12.00;11.60;;;27.10;99.90;;;;;;5099500;28;20234;-78
2023/08/17 08:47:54;;;;;;;11.60;11.20;;;27.30;99.90;;;;;;5099281;28;20229;-78
2023/08/17 08:50:26;;;;;;;11.70;11.30;;;27.50;99.90;;;;;;5098310;28;20240;-78
2023/08/17 08:53:00;;;;;;;11.52;11.13;;;27.60;99.90;;;;;;5094861;28;20215;-79
2023/08/17 08:55:31;;;;;;;11.02;10.73;;;27.70;99.90;;;;;;5096403;28;20260;-78
2023/08/17 08:57:58;;;;;;;11.13;10.82;;;27.80;99.90;;;;;;5098886;28;20241;-81
2023/08/17 09:00:26;;;;;;;11.15;10.85;;;27.90;99.90;;;;;;5097288;28;20249;-81
2023/08/17 09:02:54;;;;;;;11.10;10.80;;;27.90;99.90;;;;;;5098639;28;20225;-81
2023/08/17 09:05:23;;;;;;;11.05;10.75;;;28.10;99.90;;;;;;5095259;28;20234;-79
2023/08/17 09:07:51;;;;;;;11.23;10.93;;;28.30;99.90;;;;;;5087947;28;20230;-80
2023/08/17 09:10:18;;;;;;;11.13;10.82;;;28.50;99.90;;;;;;5082590;28;20252;-79
2023/08/17 09:12:47;;;;;;;11.30;11.00;;;28.60;99.90;;;;;;5086410;28;20242;-80
2023/08/17 09:15:14;;;;;;;11.38;11.07;;;28.60;99.90;;;;;;5085543;28;20240;-82
2023/08/17 09:17:41;;;;;;;11.13;10.82;;;28.90;99.90;;;;;;5084358;28;20257;-81
2023/08/17 09:20:10;;;;;;;11.40;11.10;;;29.10;99.90;;;;;;5082746;28;20329;-79
2023/08/17 09:22:41;;;;;;;11.45;11.15;;;29.30;99.90;;;;;;5081306;28;20234;-80
2023/08/17 09:25:10;;;;;;;11.18;10.88;;;29.50;99.90;;;;;;5081759;28;20233;-78
2023/08/17 09:27:38;;;;;;;11.02;10.73;;;29.60;99.90;;;;;;5079255;28;20321;-78
2023/08/17 09:30:07;;;;;;;10.80;10.50;;;29.60;99.90;;;;;;5077862;28;20304;-78
2023/08/17 09:32:34;;;;;;;11.02;10.73;;;29.60;99.90;;;;;;5077365;28;20253;-78
2023/08/17 09:35:06;;;;;;;10.68;10.38;;;29.70;99.90;;;;;;5078818;28;20325;-78
2023/08/17 09:37:33;;;;;;;10.80;10.50;;;29.80;99.90;;;;;;5079223;28;20237;-78
2023/08/17 09:40:02;;;;;;;10.90;10.60;;;30.00;99.90;;;;;;5088879;28;20238;-79
2023/08/17 09:42:31;;;;;;;10.75;10.45;;;30.10;99.90;;;;;;5076927;28;20252;-78
2023/08/17 09:45:01;;;;;;;10.68;10.38;;;30.20;99.90;;;;;;5078045;28;20226;-79
2023/08/17 09:47:28;;;;;;;10.90;10.60;;;30.20;99.90;;;;;;5072556;28;20260;-78
2023/08/17 09:49:56;;;;;;;11.00;10.70;;;30.50;99.90;;;;;;5078812;28;20248;-78
2023/08/17 09:52:23;;;;;;;10.88;10.57;;;30.70;99.90;;;;;;5078291;28;20309;-78
2023/08/17 09:54:54;;;;;;;11.00;10.70;;;30.70;99.90;;;;;;5070068;28;20234;-78
2023/08/17 09:57:23;;;;;;;10.45;10.15;;;30.60;99.90;;;;;;5078392;28;20238;-78
2023/08/17 09:59:53;;;;;;;10.38;10.07;;;30.70;99.90;;;;;;5077997;28;20237;-78
2023/08/17 10:02:24;;;;;;;10.38;10.07;;;30.60;99.90;;;;;;5077702;28;20234;-78
2023/08/17 10:04:53;;;;;;;10.57;10.27;;;30.90;99.90;;;;;;5069543;28;20234;-77
2023/08/17 10:07:21;;;;;;;10.40;10.10;;;31.20;99.90;;;;;;5078777;28;20228;-77
2023/08/17 10:09:57;;;;;;;10.80;10.50;;;31.40;99.90;;;;;;5078005;28;20238;-79
2023/08/17 10:12:29;;;;;;;11.02;10.73;;;31.30;99.90;;;;;;5078119;28;20268;-79
2023/08/17 10:15:01;;;;;;;11.00;10.70;;;31.50;99.90;;;;;;5077004;28;20241;-78
2023/08/17 10:17:32;;;;;;;10.80;10.50;;;31.80;99.90;;;;;;5078026;28;20290;-79
2023/08/17 10:20:00;;;;;;;10.73;10.43;;;31.70;99.90;;;;;;5079475;28;20226;-79
2023/08/17 10:22:33;;;;;;;10.68;10.38;;;31.80;99.90;;;;;;5078531;28;20222;-78
2023/08/17 10:25:02;;;;;;;10.60;10.30;;;31.80;99.90;;;;;;5080598;28;20226;-79
2023/08/17 10:27:32;;;;;;;10.60;10.30;;;31.80;99.90;;;;;;5080386;28;20238;-78
2023/08/17 10:30:00;;;;;;;10.57;10.27;;;31.70;99.90;;;;;;5079686;28;20304;-78
2023/08/17 10:32:28;;;;;;;10.80;10.50;;;31.90;99.90;;;;;;5080528;28;20222;-79
2023/08/17 10:34:55;;;;;;;11.00;10.70;;;32.40;99.90;;;;;;5080443;28;20226;-78
2023/08/17 10:37:24;;;;;;;10.90;10.60;;;32.60;99.90;;;;;;5088759;28;20231;-78
2023/08/17 10:39:52;;;;;;;11.00;10.70;;;32.60;99.90;;;;;;5076997;28;20238;-78
2023/08/17 10:42:34;;;;;;;11.02;10.73;;;32.60;99.90;;;;;;5077255;28;20222;-79
2023/08/17 10:45:03;;;;;;;10.90;10.60;;;32.70;99.90;;;;;;5079074;28;20230;-80
2023/08/17 10:47:32;;;;;;;10.68;10.38;;;32.70;99.90;;;;;;5079580;28;20256;-79
2023/08/17 10:50:04;;;;;;;10.80;10.50;;;32.70;99.90;;;;;;5080545;28;20237;-79
2023/08/17 10:52:33;;;;;;;10.85;10.55;;;32.80;99.90;;;;;;5081597;28;20226;-79
2023/08/17 10:55:02;;;;;;;11.10;10.80;;;32.90;99.90;;;;;;5081872;28;20297;-79
2023/08/17 10:57:32;;;;;;;10.80;10.50;;;33.10;99.90;;;;;;5083022;28;20256;-79
2023/08/17 11:00:20;;;;;;;11.20;10.90;;;33.30;99.90;;;;;;5084196;28;20258;-80
2023/08/17 11:02:55;;;;;;;11.10;10.80;;;33.70;99.90;;;;;;5083962;28;20210;-80
2023/08/17 11:05:41;;;;;;;11.05;10.75;;;33.60;99.90;;;;;;5083480;28;20229;-79
2023/08/17 11:08:10;;;;;;;10.98;10.68;;;33.90;99.90;;;;;;5082199;28;20285;-79
2023/08/17 11:10:38;;;;;;;11.10;10.80;;;33.90;99.90;;;;;;5081403;28;20240;-79
2023/08/17 11:13:07;;;;;;;11.18;10.88;;;33.70;99.90;;;;;;5082526;28;20210;-80
2023/08/17 11:15:41;;;;;;;11.10;10.80;;;33.50;99.90;;;;;;5083122;28;20291;-79
2023/08/17 11:18:10;;;;;;;11.02;10.73;;;33.30;99.90;;;;;;5079714;28;20233;-78
2023/08/17 11:20:38;;;;;;;11.02;10.73;;;33.50;99.90;;;;;;5079663;28;20234;-80
2023/08/17 11:23:05;;;;;;;11.07;10.77;;;33.60;99.90;;;;;;5081351;28;20237;-80
2023/08/17 11:25:34;;;;;;;11.27;10.98;;;33.50;99.90;;;;;;5080849;28;20237;-82
2023/08/17 11:28:02;;;;;;;11.10;10.80;;;33.60;99.90;;;;;;5081349;28;20238;-82
2023/08/17 11:30:33;;;;;;;10.93;10.63;;;33.80;99.90;;;;;;5081021;28;20738;-82
2023/08/17 11:33:00;;;;;;;11.10;10.80;;;34.00;99.90;;;;;;5081983;28;20218;-82
2023/08/17 11:35:27;;;;;;;10.85;10.55;;;34.10;99.90;;;;;;5085397;28;20230;-82
2023/08/17 11:37:55;;;;;;;10.93;10.63;;;34.20;99.90;;;;;;5090105;28;20328;-81
2023/08/17 11:40:22;;;;;;;11.10;10.80;;;34.10;99.90;;;;;;5085182;28;20258;-82
2023/08/17 11:42:49;;;;;;;11.07;10.77;;;34.00;99.90;;;;;;5082672;28;20228;-81
2023/08/17 11:45:17;;;;;;;10.95;10.65;;;34.00;99.90;;;;;;5082601;28;20225;-81
2023/08/17 11:47:47;;;;;;;11.00;10.70;;;34.00;99.90;;;;;;5081752;28;20253;-81
2023/08/17 11:50:15;;;;;;;11.60;11.20;;;34.00;99.90;;;;;;5084407;28;20276;-81
2023/08/17 11:52:42;;;;;;;11.00;10.70;;;33.80;99.90;;;;;;5082797;28;20222;-82
2023/08/17 11:55:10;;;;;;;11.07;10.77;;;33.70;99.90;;;;;;5082032;28;20234;-81
2023/08/17 11:57:38;;;;;;;11.10;10.80;;;33.70;99.90;;;;;;5081471;28;20237;-80
2023/08/17 12:00:09;;;;;;;11.48;11.18;;;33.70;99.90;;;;;;5081362;28;20230;-81
2023/08/17 12:02:41;;;;;;;11.10;10.80;;;33.90;99.90;;;;;;5082434;28;20222;-82
2023/08/17 12:05:10;;;;;;;11.23;10.93;;;34.00;99.90;;;;;;5081459;28;20261;-81
2023/08/17 12:07:37;;;;;;;11.32;11.02;;;34.10;99.90;;;;;;5081934;28;20225;-82
2023/08/17 12:10:06;;;;;;;11.27;10.98;;;34.10;99.90;;;;;;5081253;28;20246;-81
2023/08/17 12:12:39;;;;;;;11.10;10.80;;;34.00;99.90;;;;;;5086046;28;20237;-81
2023/08/17 12:15:08;;;;;;;11.23;10.93;;;34.10;99.90;;;;;;5086971;28;20284;-83
2023/08/17 12:17:37;;;;;;;11.60;11.20;;;34.30;99.90;;;;;;5087423;28;20225;-82
2023/08/17 12:20:05;;;;;;;11.30;11.00;;;34.40;99.90;;;;;;5083508;28;20230;-84
2023/08/17 12:22:34;;;;;;;11.52;11.13;;;34.10;99.90;;;;;;5082211;28;20226;-84
2023/08/17 12:25:01;;;;;;;11.40;11.10;;;34.10;99.90;;;;;;5082776;28;20269;-84
2023/08/17 12:27:28;;;;;;;11.35;11.05;;;34.00;99.90;;;;;;5082449;28;20383;-83
2023/08/17 12:29:55;;;;;;;11.30;11.00;;;34.20;99.90;;;;;;5081239;28;20324;-83
2023/08/17 12:32:23;;;;;;;11.32;11.02;;;34.40;99.90;;;;;;5081051;28;20245;-84
2023/08/17 12:34:50;;;;;;;11.38;11.07;;;34.90;99.90;;;;;;5088606;28;21051;-84
2023/08/17 12:37:21;;;;;;;11.32;11.02;;;35.40;99.90;;;;;;5078697;28;20312;-85